KFKR

Frankfort Municipal Airport

Frankfort, Indiana, USA
METAR KFKR 211255Z AUTO 35013KT 7SM -RA BKN009 OVC012 03/02 A3037 RMK AO2 P0003 T00280016
Observed Flight Rules
Feb-21 @ 12:55 UTC (17 minutes ago) Instrument Flight Rules
Wind Visibility Clouds Conditions
350° at 13 knots 7 miles
  • Broken at 900' AGL
  • Overcast at 1,200' AGL
  • Light Rain
Temperatures Readings Precipitation
Current 3°C / 37°F
Dewpoint 2°C / 36°F
Humidity 93%
Altimeter 30.37" Hg
Pressure 1028 hPa
Elevation 262
Current Rain 0.03
METAR KFKR 211255Z AUTO 35013KT 7SM -RA BKN009 OVC012 03/02 A3037 RMK AO2 P0003 T00280016
Observed Flight Rules
Feb-21 @ 12:55 UTC
(17 minutes ago)
IFR
Wind Visibility
350° at 13 knots 7 miles
Clouds
  • Broken at 900' AGL
  • Overcast at 1,200' AGL
Conditions
  • Light Rain
Temperature Dewpoint
3°C / 37°F 2°C / 36°F
Humidity Altimeter Pressure
93% 30.37" Hg 1028 hPa
Current Rain
0.03